EW4117 Gor ES current weather conditions

sailwx.info

Wind from 316 at 13 knots gusting 23

Air temperature 12.8° C
Dewpoint 7.2° C

Last reported at 2018-Apr-25 13:56 UTC.
Time now 2018-Apr-25 14:42 UTC

Location: N 37°22' W 002°59'.
View on Google Maps.

See reports from other nearby stations

  
Tides and Currents Weather Stations Pressure Air Temp Water Temp Dewpoint Dewpoint Depression Visibility Wind Speed Wind Dir Waves Ship Positions
date/time (UTC)wind fromknots sea level pressurealtimeterstation pressurevisibilityair tempwater tempwave heightnotes
2018-Apr-25 13:56 316 13 gusting 23 12.8
2018-Apr-25 13:40 010 9 gusting 20 12.2
2018-Apr-25 13:25 058 14 gusting 19 12.2
2018-Apr-25 13:10 031 11 gusting 18 12.2
2018-Apr-25 12:55 034 10 gusting 19 12.2
2018-Apr-25 12:40 051 8 gusting 15 12.8
2018-Apr-25 12:25 034 11 gusting 19 12.8
2018-Apr-25 12:10 033 6 gusting 17 12.2
2018-Apr-25 11:55 113 8 gusting 19 12.2
2018-Apr-25 11:40 048 9 gusting 16 11.7
2018-Apr-25 11:25 053 6 gusting 13 11.7
2018-Apr-25 11:10 058 7 gusting 15 11.7
2018-Apr-25 10:55 051 7 gusting 14 12.2
2018-Apr-25 10:40 032 6 gusting 13 12.2
2018-Apr-25 10:25 096 4 gusting 11 11.7
2018-Apr-25 10:10 088 8 gusting 15 11.7
2018-Apr-25 09:55 095 12 gusting 19 11.7
2018-Apr-25 09:40 119 6 gusting 13 12.2
2018-Apr-25 09:25 082 2 gusting 11 11.7
2018-Apr-25 09:10 088 4 gusting 7 11.7
2018-Apr-25 08:55 096 11.7
2018-Apr-25 08:40 002 11.7
2018-Apr-25 08:25 127 5 gusting 9 10.6
2018-Apr-25 08:10 117 7 gusting 16 10.6
2018-Apr-25 07:55 101 11 gusting 20 11.1
2018-Apr-25 07:40 093 10 gusting 13 10.6
2018-Apr-25 07:25 050 6 gusting 13 10.0
2018-Apr-25 07:10 133 2 gusting 13 8.9
2018-Apr-25 06:55 349 6 gusting 8 8.9
2018-Apr-25 06:40 349 3 gusting 6 9.4
2018-Apr-25 06:25 033 8 gusting 15 10.6
2018-Apr-25 06:10 044 2 gusting 8 10.0
2018-Apr-25 05:55 060 6 gusting 10 10.0
2018-Apr-25 05:40 067 8 gusting 14 10.6
2018-Apr-25 05:25 358 6 gusting 12 11.1
2018-Apr-25 05:10 015 5 gusting 9 11.1
2018-Apr-25 04:55 023 3 gusting 9 11.1
2018-Apr-25 04:40 103 2 gusting 3 11.1
2018-Apr-25 04:25 127 1 gusting 4 11.7
2018-Apr-25 04:10 148 1 gusting 4 11.7
2018-Apr-25 03:55 109 3 gusting 5 11.1
2018-Apr-25 03:40 047 1 gusting 4 11.1
2018-Apr-25 03:25 086 2 gusting 3 11.1
2018-Apr-25 03:10 053 2 gusting 4 11.7
2018-Apr-25 02:55 321 0 gusting 2 11.1
2018-Apr-25 02:40 135 11.7
2018-Apr-25 02:25 353 0 gusting 2 11.1
2018-Apr-25 02:10 124 11.1
2018-Apr-25 01:54 262 11.1
2018-Apr-25 01:39 309 0 gusting 2 11.1
2018-Apr-25 01:24 257 11.7
2018-Apr-25 01:09 347 4 gusting 17 13.3
2018-Apr-25 00:55 118 14 gusting 25 12.2
2018-Apr-25 00:39 119 13 gusting 22 12.2
2018-Apr-25 00:24 141 18 gusting 32 12.8
2018-Apr-25 00:09 129 11 gusting 22 12.8
2018-Apr-24 23:54 140 9 gusting 21 13.3
2018-Apr-24 23:39 117 3 gusting 17 13.9
2018-Apr-24 23:24 269 0 gusting 6 13.9
2018-Apr-24 23:09 323 2 gusting 5 13.9
2018-Apr-24 22:54 027 1 gusting 6 13.9
2018-Apr-24 22:39 043 6 gusting 12 13.9
2018-Apr-24 22:24 351 5 gusting 10 14.4
2018-Apr-24 22:09 124 6 gusting 13 14.4
2018-Apr-24 21:54 094 6 gusting 15 14.4
2018-Apr-24 21:39 040 6 gusting 17 14.4
2018-Apr-24 21:24 318 5 gusting 14 14.4
2018-Apr-24 21:09 103 15 gusting 26 15.0
2018-Apr-24 20:54 126 22 gusting 29 15.0
2018-Apr-24 20:39 116 19 gusting 27 14.4
2018-Apr-24 20:24 132 20 gusting 31 15.0
2018-Apr-24 20:09 115 21 gusting 32 15.0
2018-Apr-24 19:54 122 20 gusting 27 14.4
2018-Apr-24 19:39 136 17 gusting 25 15.0
2018-Apr-24 19:24 153 11 gusting 16 15.0
2018-Apr-24 19:09 127 7 gusting 13 15.6
2018-Apr-24 18:54 088 2 gusting 5 15.6
2018-Apr-24 18:40 108 6 gusting 10 16.1
2018-Apr-24 18:24 118 10 gusting 13 16.7
2018-Apr-24 18:09 104 7 gusting 13 17.2
2018-Apr-24 17:54 108 8 gusting 14 17.2
2018-Apr-24 17:38 124 7 gusting 16 17.8
2018-Apr-24 17:24 133 5 gusting 14 17.8
2018-Apr-24 17:09 103 8 gusting 14 17.8
2018-Apr-24 16:53 110 6 gusting 8 17.8
2018-Apr-24 16:38 042 7 gusting 19 17.8
2018-Apr-24 16:23 113 7 gusting 15 17.8
2018-Apr-24 16:08 122 6 gusting 17 18.3
2018-Apr-24 15:53 037 10 gusting 18 18.9
2018-Apr-24 15:38 116 8 gusting 16 18.9
2018-Apr-24 15:23 107 10 gusting 16 18.9
2018-Apr-24 15:08 059 11 gusting 23 18.9
2018-Apr-24 14:53 096 13 gusting 20 18.9
2018-Apr-24 14:38 092 10 gusting 19 19.4
2018-Apr-24 14:23 103 13 gusting 26 18.9
2018-Apr-24 14:08 073 8 gusting 22 18.9
2018-Apr-24 13:53 134 6 gusting 22 18.9
2018-Apr-24 13:38 046 6 gusting 16 18.9
2018-Apr-24 13:23 131 9 gusting 18 18.9
2018-Apr-24 13:08 036 7 gusting 19 18.9
2018-Apr-24 12:53 046 11 gusting 19 18.3
2018-Apr-24 12:38 059 9 gusting 22 18.3
2018-Apr-24 12:23 053 11 gusting 22 18.3
2018-Apr-24 12:08 142 12 gusting 25 17.8
2018-Apr-24 11:53 093 18 gusting 27 17.8
2018-Apr-24 11:38 131 17 gusting 28 17.8
2018-Apr-24 11:23 091 8 gusting 16 18.9
2018-Apr-24 11:08 095 9 gusting 19 18.9
2018-Apr-24 10:53 245 5 gusting 13 18.3
2018-Apr-24 10:38 319 0 gusting 4 18.3
2018-Apr-24 10:23 256 2 gusting 6 16.7
2018-Apr-24 10:08 266 3 gusting 7 16.7
2018-Apr-24 09:53 321 4 gusting 8 16.7
2018-Apr-24 09:38 143 16.7
2018-Apr-24 09:23 117 9 gusting 16 16.1
2018-Apr-24 09:08 084 12 gusting 18 15.6
2018-Apr-24 08:53 113 8 gusting 23 15.6
2018-Apr-24 08:38 104 9 gusting 19 15.6
2018-Apr-24 08:23 146 6 gusting 13 15.6
2018-Apr-24 08:08 236 1 gusting 5 15.0
2018-Apr-24 07:53 069 6 gusting 11 14.4
2018-Apr-24 07:38 089 6 gusting 13 15.0
2018-Apr-24 07:23 150 9 gusting 14 14.4
2018-Apr-24 07:08 058 6 gusting 16 14.4
2018-Apr-24 06:53 129 9 gusting 15 14.4
2018-Apr-24 06:38 110 4 gusting 18 14.4
2018-Apr-24 06:23 113 7 gusting 17 13.9
2018-Apr-24 06:08 131 13 gusting 21 13.9
2018-Apr-24 05:53 150 10 gusting 16 13.3
2018-Apr-24 05:37 147 2 gusting 8 11.7
2018-Apr-24 05:22 130 2 gusting 6 10.6
2018-Apr-24 05:07 253 0 gusting 3 10.0
2018-Apr-24 04:52 150 0 gusting 2 10.6
2018-Apr-24 04:37 220 0 gusting 2 10.0
2018-Apr-24 04:22 344 10.6
2018-Apr-24 04:07 101 1 gusting 3 10.6
2018-Apr-24 03:52 051 1 gusting 3 10.6
2018-Apr-24 03:37 321 10.6
2018-Apr-24 03:22 132 0 gusting 2 10.0
2018-Apr-24 03:07 051 1 gusting 4 10.6
2018-Apr-24 02:52 077 1 gusting 4 10.6
2018-Apr-24 02:37 214 10.6
2018-Apr-24 02:22 261 0 gusting 2 11.1
2018-Apr-24 02:07 030 11.1
2018-Apr-24 01:52 229 0 gusting 2 11.7
2018-Apr-24 01:37 224 1 gusting 3 11.7
2018-Apr-24 01:22 015 4 gusting 8 11.7
2018-Apr-24 01:07 348 5 gusting 9 12.2
2018-Apr-24 00:52 027 1 gusting 6 12.2
2018-Apr-24 00:37 014 2 gusting 4 12.2
2018-Apr-24 00:22 240 12.8
2018-Apr-24 00:07 072 2 gusting 8 13.3
2018-Apr-23 23:52 067 3 gusting 5 13.3
2018-Apr-23 23:37 354 3 gusting 9 13.3
2018-Apr-23 23:22 238 6 gusting 14 13.3
2018-Apr-23 23:07 096 10 gusting 21 13.3
2018-Apr-23 22:52 131 18 gusting 30 13.3
2018-Apr-23 22:37 140 11 gusting 21 13.9
2018-Apr-23 22:22 131 6 gusting 16 13.3
2018-Apr-23 22:07 102 6 gusting 17 12.2
2018-Apr-23 21:52 108 14 gusting 23 12.2
2018-Apr-23 21:37 142 6 gusting 13 12.8
2018-Apr-23 21:22 156 7 gusting 15 13.9
2018-Apr-23 21:07 184 7 gusting 19 15.6
2018-Apr-23 20:52 155 8 gusting 15 16.7
2018-Apr-23 20:36 137 6 gusting 16 16.7
2018-Apr-23 20:21 143 10 gusting 22 17.2
2018-Apr-23 20:06 210 3 gusting 10 16.7
2018-Apr-23 19:51 267 5 gusting 23 16.7
2018-Apr-23 19:36 238 2 gusting 14 17.2
2018-Apr-23 19:21 146 10 gusting 19 16.7
2018-Apr-23 19:06 095 6 gusting 19 17.2
2018-Apr-23 18:51 068 7 gusting 17 17.8
2018-Apr-23 18:36 139 6 gusting 15 17.8
2018-Apr-23 18:21 036 2 gusting 11 17.8
2018-Apr-23 18:06 038 6 gusting 12 17.8
2018-Apr-23 17:51 091 10 gusting 19 17.8
2018-Apr-23 17:36 118 8 gusting 20 18.3
2018-Apr-23 17:21 233 6 gusting 13 17.2
2018-Apr-23 17:06 131 4 gusting 12 16.7
2018-Apr-23 16:51 017 6 gusting 11 16.7
2018-Apr-23 16:36 033 5 gusting 11 17.8
2018-Apr-23 16:21 027 5 gusting 8 17.8
2018-Apr-23 16:06 033 1 gusting 10 17.8
2018-Apr-23 15:51 286 1 gusting 5 17.8
2018-Apr-23 15:36 333 6 gusting 10 18.3
2018-Apr-23 15:21 056 2 gusting 10 18.3
2018-Apr-23 15:06 061 4 gusting 13 18.3
2018-Apr-23 14:52 022 7 gusting 15 18.9
2018-Apr-23 14:36 027 9 gusting 17 20.0
2018-Apr-23 14:21 060 5 gusting 20 19.4
2018-Apr-23 14:06 045 6 gusting 19 18.9